Time;durP1;ratioP1;P1;durP2;ratioP2;P2;SDS_P1;SDS_P2;PMS_P1;PMS_P2;Temp;Humidity;BMP_temperature;BMP_pressure;BME280_temperature;BME280_humidity;BME280_pressure;Samples;Min_cycle;Max_cycle;Signal;HPM_P1;HPM_P2
2022/03/18 00:00:32;;;;;;;15.40;2.55;;;30.80;15.30;;;;;;4968417;28;20102;-68
2022/03/18 00:02:59;;;;;;;19.58;2.00;;;30.70;14.90;;;;;;4968242;28;20103;-66
2022/03/18 00:05:26;;;;;;;85.53;7.47;;;30.60;14.30;;;;;;4971112;28;20081;-67
2022/03/18 00:07:53;;;;;;;20.60;2.10;;;30.40;14.10;;;;;;4969483;28;20073;-66
2022/03/18 00:10:19;;;;;;;26.02;2.38;;;30.30;14.90;;;;;;4978085;28;20078;-65
2022/03/18 00:12:52;;;;;;;441.80;24.73;;;30.20;14.60;;;;;;4967070;28;20090;-64
2022/03/18 00:15:19;;;;;;;122.57;7.78;;;30.00;14.80;;;;;;4970052;28;20092;-66
2022/03/18 00:17:46;;;;;;;7.00;1.40;;;29.90;15.10;;;;;;4972615;28;20098;-67
2022/03/18 00:20:13;;;;;;;9.80;1.80;;;29.90;15.20;;;;;;4973550;28;20085;-64
2022/03/18 00:22:42;;;;;;;5.88;1.50;;;30.30;14.90;;;;;;4960097;28;20098;-62
2022/03/18 00:25:09;;;;;;;11.98;1.50;;;30.50;14.50;;;;;;4973427;28;20071;-66
2022/03/18 00:27:38;;;;;;;5.75;1.45;;;30.60;14.60;;;;;;4971071;28;20166;-63
2022/03/18 00:30:06;;;;;;;8.00;1.63;;;30.60;14.20;;;;;;4972210;28;20098;-64
2022/03/18 00:32:33;;;;;;;5.43;1.02;;;30.50;14.30;;;;;;4983360;28;20118;-63
2022/03/18 00:35:00;;;;;;;6.47;1.20;;;30.40;14.00;;;;;;4984927;28;20070;-65
2022/03/18 00:37:26;;;;;;;4.30;1.30;;;30.30;13.90;;;;;;4970666;28;20141;-65
2022/03/18 00:39:53;;;;;;;12.48;1.60;;;30.40;14.50;;;;;;4972369;28;20074;-63
2022/03/18 00:42:19;;;;;;;6.32;1.17;;;30.30;13.90;;;;;;4969848;28;20086;-62
2022/03/18 00:44:45;;;;;;;6.35;1.75;;;30.20;13.90;;;;;;4956576;28;20088;-63
2022/03/18 00:52:41;;;;;;;4.85;1.50;;;30.00;13.90;;;;;;4972430;28;20120;-65
2022/03/18 00:55:08;;;;;;;5.30;1.48;;;30.10;13.80;;;;;;4972571;28;20070;-62
2022/03/18 00:57:35;;;;;;;3.83;1.10;;;29.90;13.50;;;;;;4970823;28;20801;-62
2022/03/18 01:00:02;;;;;;;4.53;1.30;;;29.90;13.80;;;;;;4976214;28;20680;-59
2022/03/18 01:02:28;;;;;;;7.45;1.45;;;29.70;13.90;;;;;;4987339;28;20096;-58
2022/03/18 01:04:55;;;;;;;13.88;1.98;;;29.70;14.30;;;;;;4969069;28;20085;-61
2022/03/18 01:07:21;;;;;;;9.13;1.42;;;29.60;14.40;;;;;;4970826;28;20085;-60
2022/03/18 01:09:47;;;;;;;27.33;2.25;;;29.50;14.20;;;;;;4978707;28;20090;-61
2022/03/18 01:12:14;;;;;;;21.90;1.60;;;29.40;14.70;;;;;;4969819;28;20094;-63
2022/03/18 01:14:40;;;;;;;9.95;1.60;;;29.30;14.60;;;;;;4971465;28;20144;-64
2022/03/18 01:17:07;;;;;;;8.60;1.80;;;29.10;14.50;;;;;;4972589;28;20102;-60
2022/03/18 01:19:33;;;;;;;25.58;2.55;;;28.90;14.60;;;;;;4970299;28;20070;-62
2022/03/18 01:22:00;;;;;;;6.00;1.33;;;28.90;16.10;;;;;;4969611;28;20086;-64
2022/03/18 01:24:26;;;;;;;6.63;1.73;;;28.70;15.20;;;;;;4968064;28;20531;-64
2022/03/18 01:26:52;;;;;;;8.20;1.60;;;28.60;15.60;;;;;;4970048;28;20089;-65
2022/03/18 01:29:19;;;;;;;8.68;1.70;;;28.40;15.80;;;;;;4973458;28;20070;-65
2022/03/18 01:31:45;;;;;;;11.18;2.20;;;28.30;16.10;;;;;;4970413;28;20504;-65
2022/03/18 01:34:12;;;;;;;10.65;2.10;;;28.20;16.40;;;;;;4981972;28;20438;-63
2022/03/18 01:36:38;;;;;;;10.80;2.10;;;28.10;17.10;;;;;;4971079;28;20078;-65
2022/03/18 01:39:05;;;;;;;14.40;1.70;;;28.00;16.80;;;;;;4968741;28;20076;-63
2022/03/18 01:41:33;;;;;;;6.45;1.25;;;27.90;16.80;;;;;;4971049;28;20081;-65
2022/03/18 01:43:59;;;;;;;11.50;1.52;;;27.80;16.80;;;;;;4957629;28;20081;-64
2022/03/18 01:46:26;;;;;;;9.40;1.70;;;27.60;16.80;;;;;;4975558;28;20173;-62
2022/03/18 01:48:52;;;;;;;36.20;3.15;;;27.50;17.00;;;;;;4969838;28;20085;-64
2022/03/18 01:51:19;;;;;;;7.50;1.77;;;27.40;17.30;;;;;;4972399;28;20589;-63
2022/03/18 01:54:43;;;;;;;10.70;1.92;;;27.20;17.50;;;;;;4969288;28;20090;-63
2022/03/18 01:56:33;;;;;;;10.82;2.75;;;27.10;17.50;;;;;;4969312;28;20086;-63
2022/03/18 01:59:00;;;;;;;18.00;2.25;;;26.90;17.60;;;;;;4969147;28;20532;-62
2022/03/18 02:01:26;;;;;;;12.07;1.80;;;26.80;17.90;;;;;;4939144;28;20141;-63
2022/03/18 02:03:52;;;;;;;15.15;2.53;;;26.70;18.00;;;;;;4969040;28;20074;-63
2022/03/18 02:06:19;;;;;;;20.13;2.47;;;26.60;18.00;;;;;;4969454;28;21063;-65
2022/03/18 02:08:47;;;;;;;17.98;2.28;;;26.40;18.40;;;;;;4970603;28;20079;-63
2022/03/18 02:11:14;;;;;;;26.35;4.40;;;26.30;18.90;;;;;;4970428;28;20170;-63
2022/03/18 02:13:40;;;;;;;20.42;3.22;;;26.20;19.10;;;;;;4958514;28;20113;-66
2022/03/18 02:16:07;;;;;;;48.33;4.97;;;26.10;19.10;;;;;;4961039;28;20071;-62
2022/03/18 02:18:33;;;;;;;25.45;2.92;;;26.00;19.60;;;;;;4969848;28;20072;-63
2022/03/18 02:21:00;;;;;;;15.18;2.95;;;25.80;19.90;;;;;;4968659;28;20081;-62
2022/03/18 02:23:26;;;;;;;23.48;3.03;;;25.70;20.00;;;;;;4969308;28;20083;-62
2022/03/18 02:25:52;;;;;;;20.67;3.75;;;25.70;20.00;;;;;;4970192;28;20075;-61
2022/03/18 02:28:19;;;;;;;31.90;4.60;;;25.50;20.40;;;;;;4969061;28;20076;-62
2022/03/18 02:30:46;;;;;;;21.45;3.40;;;25.40;20.80;;;;;;4970142;28;20102;-62
2022/03/18 02:33:12;;;;;;;24.70;3.80;;;25.40;21.70;;;;;;4968032;28;20086;-63
2022/03/18 02:35:39;;;;;;;33.10;3.85;;;25.30;21.30;;;;;;4956154;28;20562;-65
2022/03/18 02:38:05;;;;;;;51.38;4.82;;;25.20;21.00;;;;;;4968211;28;20159;-64
2022/03/18 02:40:31;;;;;;;37.53;4.75;;;24.90;20.80;;;;;;4954144;28;20091;-62
2022/03/18 02:42:58;;;;;;;29.10;4.05;;;24.90;21.40;;;;;;4970861;28;20570;-62
2022/03/18 02:45:24;;;;;;;43.72;3.70;;;24.80;21.50;;;;;;4969987;28;20079;-63
2022/03/18 02:47:51;;;;;;;37.70;3.90;;;24.70;21.70;;;;;;4971541;28;20575;-65
2022/03/18 02:50:17;;;;;;;42.20;4.78;;;24.60;21.30;;;;;;4968236;28;20090;-60
2022/03/18 02:52:44;;;;;;;31.08;7.00;;;24.50;21.50;;;;;;4970487;28;20086;-62
2022/03/18 02:55:11;;;;;;;37.08;8.07;;;24.40;22.10;;;;;;4955685;28;20072;-65
2022/03/18 02:57:39;;;;;;;48.67;8.48;;;24.30;22.00;;;;;;4969105;28;20087;-63
2022/03/18 03:00:06;;;;;;;41.10;8.05;;;24.20;22.50;;;;;;4972468;28;20162;-60
2022/03/18 03:02:33;;;;;;;32.47;6.72;;;24.10;22.60;;;;;;4969950;28;20119;-64
2022/03/18 03:08:00;;;;;;;37.30;5.63;;;24.00;22.90;;;;;;4982930;28;20079;-62
2022/03/18 03:10:31;;;;;;;30.42;6.15;;;23.90;23.30;;;;;;4969328;28;20099;-65
2022/03/18 03:13:00;;;;;;;50.30;7.05;;;23.80;23.40;;;;;;4966948;28;20099;-62
2022/03/18 03:15:29;;;;;;;46.95;6.85;;;23.70;23.20;;;;;;4967775;28;20110;-61
2022/03/18 03:17:56;;;;;;;46.25;6.30;;;23.70;23.30;;;;;;4970994;28;20082;-60
2022/03/18 03:20:22;;;;;;;48.50;7.07;;;23.60;23.40;;;;;;4967393;28;20122;-61
2022/03/18 03:22:48;;;;;;;39.78;5.93;;;23.50;24.00;;;;;;4969640;28;20097;-63
2022/03/18 03:25:15;;;;;;;49.03;6.93;;;23.50;24.10;;;;;;4955756;28;20491;-65
2022/03/18 03:27:41;;;;;;;55.55;7.28;;;23.40;24.20;;;;;;4969009;28;20117;-62
2022/03/18 03:30:10;;;;;;;60.13;7.00;;;23.40;24.70;;;;;;4968861;28;20071;-63
2022/03/18 03:32:37;;;;;;;55.38;6.53;;;23.30;24.40;;;;;;4970094;28;20137;-64
2022/03/18 03:35:05;;;;;;;48.67;6.90;;;23.20;24.40;;;;;;4967715;28;20149;-63
2022/03/18 03:37:32;;;;;;;39.13;6.18;;;23.10;24.40;;;;;;4933630;28;20086;-65
2022/03/18 03:39:58;;;;;;;53.30;7.40;;;23.00;24.30;;;;;;4968944;28;20126;-67
2022/03/18 03:42:25;;;;;;;43.38;6.18;;;22.90;24.40;;;;;;4969247;28;20162;-63
2022/03/18 03:44:51;;;;;;;62.40;7.45;;;22.90;24.60;;;;;;4967274;28;20071;-64
2022/03/18 03:47:18;;;;;;;58.53;6.95;;;22.90;24.90;;;;;;4968065;28;20110;-62
2022/03/18 03:49:44;;;;;;;40.03;6.53;;;22.80;25.10;;;;;;4982078;28;20074;-66
2022/03/18 03:52:11;;;;;;;38.85;6.05;;;22.70;25.20;;;;;;4972630;28;20117;-64
2022/03/18 03:54:40;;;;;;;45.72;6.65;;;22.70;25.10;;;;;;4976632;28;20079;-63
2022/03/18 03:57:07;;;;;;;52.17;7.95;;;22.60;25.30;;;;;;4972155;28;20091;-67
2022/03/18 03:59:34;;;;;;;44.83;7.72;;;22.50;25.50;;;;;;4976512;28;20106;-67
2022/03/18 04:02:02;;;;;;;59.45;8.18;;;22.40;25.80;;;;;;4974578;28;20575;-64
2022/03/18 04:04:29;;;;;;;53.83;7.65;;;22.40;25.70;;;;;;4969592;28;20153;-62
2022/03/18 04:06:55;;;;;;;45.88;7.60;;;22.30;25.80;;;;;;4969709;28;20067;-63
2022/03/18 04:09:22;;;;;;;55.42;12.07;;;22.20;26.00;;;;;;4970993;28;20071;-60
2022/03/18 04:11:48;;;;;;;51.78;11.65;;;22.10;26.00;;;;;;4970579;28;20158;-62
2022/03/18 04:14:15;;;;;;;68.55;12.50;;;22.20;26.30;;;;;;4970891;28;20075;-62
2022/03/18 04:16:41;;;;;;;56.58;9.88;;;22.10;26.50;;;;;;4973151;28;20122;-60
2022/03/18 04:19:07;;;;;;;50.55;8.98;;;22.10;26.90;;;;;;4954873;28;20430;-64
2022/03/18 04:21:34;;;;;;;64.63;9.43;;;22.00;27.00;;;;;;4971578;28;20079;-63
2022/03/18 04:24:00;;;;;;;54.78;10.40;;;22.00;26.90;;;;;;4971305;28;20532;-61
2022/03/18 04:26:26;;;;;;;50.90;9.75;;;21.90;26.90;;;;;;4955277;28;21332;-64
2022/03/18 04:28:54;;;;;;;59.80;9.80;;;21.80;27.10;;;;;;4971640;28;20079;-62
2022/03/18 04:31:20;;;;;;;58.97;9.95;;;21.80;27.10;;;;;;4971325;28;20446;-61
2022/03/18 04:33:47;;;;;;;67.72;9.85;;;21.80;27.40;;;;;;4973018;28;20142;-60
2022/03/18 04:36:13;;;;;;;48.38;10.45;;;21.80;27.10;;;;;;4970558;28;20165;-63
2022/03/18 04:38:40;;;;;;;72.68;11.48;;;21.80;26.90;;;;;;4971447;28;20097;-62
2022/03/18 04:41:06;;;;;;;54.90;10.30;;;21.70;26.80;;;;;;4971740;28;20079;-62
2022/03/18 04:43:33;;;;;;;58.35;10.18;;;21.70;26.90;;;;;;4971787;28;20082;-63
2022/03/18 04:45:59;;;;;;;67.95;11.75;;;21.60;26.90;;;;;;4971882;28;20110;-63
2022/03/18 04:48:26;;;;;;;59.88;10.98;;;21.50;26.90;;;;;;4979037;28;20079;-62
2022/03/18 04:50:52;;;;;;;58.85;10.98;;;21.50;27.30;;;;;;4957441;28;20078;-63
2022/03/18 04:53:19;;;;;;;68.72;9.95;;;21.50;27.30;;;;;;4972144;28;20563;-63
2022/03/18 04:55:45;;;;;;;59.88;10.77;;;21.40;26.70;;;;;;4955729;28;20166;-62
2022/03/18 04:58:12;;;;;;;63.28;10.07;;;21.30;27.10;;;;;;4971938;28;20098;-64
2022/03/18 05:00:38;;;;;;;77.60;10.18;;;21.30;27.20;;;;;;4971581;28;20117;-61
2022/03/18 05:03:05;;;;;;;67.13;10.15;;;21.20;27.60;;;;;;4970984;28;20126;-62
2022/03/18 05:05:32;;;;;;;82.90;14.07;;;21.20;27.70;;;;;;4972485;28;20553;-61
2022/03/18 05:07:58;;;;;;;93.38;13.05;;;21.10;27.60;;;;;;4985987;28;20075;-63
2022/03/18 05:10:24;;;;;;;86.90;13.13;;;21.00;28.00;;;;;;4971161;28;20075;-63
2022/03/18 05:12:52;;;;;;;73.35;10.95;;;21.10;28.20;;;;;;4955804;28;20118;-65
2022/03/18 05:15:19;;;;;;;80.60;13.00;;;21.00;28.20;;;;;;4969895;28;20078;-63
2022/03/18 05:17:50;;;;;;;109.45;14.65;;;20.90;28.30;;;;;;4976673;28;20145;-63
2022/03/18 05:20:17;;;;;;;95.20;18.40;;;20.90;28.80;;;;;;4971930;28;20075;-63
2022/03/18 05:22:45;;;;;;;93.43;19.17;;;20.80;28.30;;;;;;4955148;28;20103;-63
2022/03/18 05:25:12;;;;;;;116.03;22.67;;;20.70;28.10;;;;;;4971650;28;20575;-62
2022/03/18 05:27:44;;;;;;;119.25;24.30;;;20.80;28.20;;;;;;4987064;28;20083;-63
2022/03/18 05:30:14;;;;;;;112.75;24.60;;;20.60;28.00;;;;;;4986343;28;20098;-62
2022/03/18 05:32:41;;;;;;;123.38;23.58;;;20.70;28.60;;;;;;4970589;28;20122;-61
2022/03/18 05:35:08;;;;;;;115.40;21.85;;;20.70;28.60;;;;;;4986480;28;20523;-61
2022/03/18 05:37:34;;;;;;;111.53;22.50;;;20.70;28.70;;;;;;4969313;28;20103;-65
2022/03/18 05:40:00;;;;;;;128.52;22.70;;;20.70;28.60;;;;;;4953763;28;20074;-66
2022/03/18 05:42:27;;;;;;;105.90;21.55;;;20.60;28.40;;;;;;4970168;28;20094;-60
2022/03/18 05:44:53;;;;;;;130.38;23.10;;;20.60;29.40;;;;;;4953773;28;20087;-63
2022/03/18 05:47:19;;;;;;;114.32;22.50;;;20.60;28.90;;;;;;4970808;28;20099;-61
2022/03/18 05:49:46;;;;;;;;;;;20.50;29.00;;;;;;4970349;28;20071;-62
2022/03/18 05:52:12;;;;;;;130.35;24.98;;;20.50;29.70;;;;;;4972094;28;19982;-66
2022/03/18 05:54:38;;;;;;;133.77;25.20;;;20.40;29.80;;;;;;4951424;28;20086;-63
2022/03/18 05:57:04;;;;;;;;;;;20.30;29.50;;;;;;4969965;28;20096;-64
2022/03/18 05:59:33;;;;;;;119.88;24.08;;;20.20;29.50;;;;;;4969861;28;19982;-63
2022/03/18 06:02:01;;;;;;;121.57;24.95;;;20.20;29.60;;;;;;4990813;28;20174;-63
2022/03/18 06:04:30;;;;;;;144.00;25.08;;;20.20;29.70;;;;;;4969417;28;20162;-64
2022/03/18 06:06:57;;;;;;;158.43;25.50;;;20.10;29.80;;;;;;4952863;28;20087;-64
2022/03/18 06:12:08;;;;;;;143.10;27.55;;;20.10;30.30;;;;;;4969219;28;20155;-64
2022/03/18 06:14:35;;;;;;;150.15;31.50;;;20.00;30.30;;;;;;4961552;28;20171;-62
2022/03/18 06:17:04;;;;;;;152.88;35.95;;;20.00;30.30;;;;;;4952656;28;20570;-64
2022/03/18 06:19:31;;;;;;;176.93;44.15;;;19.90;29.90;;;;;;4951693;28;20109;-63
2022/03/18 06:21:59;;;;;;;159.13;39.67;;;19.90;29.80;;;;;;4953152;28;20071;-62
2022/03/18 06:24:25;;;;;;;160.48;41.08;;;19.90;30.30;;;;;;4968519;28;20087;-63
2022/03/18 06:26:52;;;;;;;175.55;43.97;;;19.80;30.30;;;;;;4969208;28;20087;-63
2022/03/18 06:29:19;;;;;;;181.80;41.47;;;19.80;29.90;;;;;;4951933;28;20071;-66
2022/03/18 06:31:47;;;;;;;175.07;43.10;;;19.80;30.00;;;;;;4969216;28;20107;-63
2022/03/18 06:34:14;;;;;;;186.93;43.25;;;19.70;30.00;;;;;;4952578;28;20107;-63
2022/03/18 06:36:41;;;;;;;183.73;42.60;;;19.80;30.90;;;;;;4967192;28;20450;-65
2022/03/18 06:39:08;;;;;;;207.93;46.05;;;19.70;30.20;;;;;;4968817;28;20523;-62
2022/03/18 06:41:35;;;;;;;192.52;44.88;;;19.70;29.80;;;;;;4968160;28;20543;-64
2022/03/18 06:44:02;;;;;;;176.50;41.90;;;19.70;31.10;;;;;;4969178;28;20071;-62
2022/03/18 06:46:29;;;;;;;169.27;44.38;;;19.60;30.60;;;;;;4967892;28;20075;-62
2022/03/18 06:48:55;;;;;;;185.30;45.92;;;19.60;30.80;;;;;;4970301;28;20114;-62
2022/03/18 06:51:21;;;;;;;;;;;19.60;30.80;;;;;;4970015;28;20075;-61
2022/03/18 06:53:47;;;;;;;188.05;46.70;;;19.60;30.80;;;;;;4969594;28;19997;-64
2022/03/18 06:56:14;;;;;;;172.27;45.58;;;19.50;30.20;;;;;;4968884;28;20098;-62
2022/03/18 06:58:40;;;;;;;208.23;50.20;;;19.50;30.40;;;;;;4969729;28;20669;-62
2022/03/18 07:01:07;;;;;;;156.88;45.35;;;19.40;30.60;;;;;;4970297;28;20122;-63
2022/03/18 07:03:34;;;;;;;173.43;46.40;;;19.40;30.60;;;;;;4969641;28;20438;-62
2022/03/18 07:06:01;;;;;;;201.80;48.85;;;19.40;31.00;;;;;;4968699;28;20075;-61
2022/03/18 07:08:27;;;;;;;189.00;47.40;;;19.40;30.80;;;;;;4967727;28;20086;-62
2022/03/18 07:10:53;;;;;;;160.75;43.72;;;19.30;30.60;;;;;;4969428;28;20079;-62
2022/03/18 07:13:20;;;;;;;184.30;48.83;;;19.30;30.80;;;;;;4964475;28;20634;-61
2022/03/18 07:15:46;;;;;;;188.82;49.60;;;19.20;30.90;;;;;;4966639;28;20083;-62
2022/03/18 07:18:13;;;;;;;200.90;52.92;;;19.20;31.00;;;;;;4967671;28;20569;-62
2022/03/18 07:20:40;;;;;;;204.73;59.30;;;19.30;31.60;;;;;;4968856;28;20074;-62
2022/03/18 07:23:08;;;;;;;203.52;58.08;;;19.30;31.70;;;;;;4968603;28;20087;-61
2022/03/18 07:25:36;;;;;;;218.20;56.72;;;19.20;32.20;;;;;;4967228;28;20080;-61
2022/03/18 07:28:04;;;;;;;169.85;53.33;;;19.20;32.10;;;;;;4968214;28;20186;-64
2022/03/18 07:30:31;;;;;;;175.45;53.80;;;19.20;31.70;;;;;;4952878;28;20523;-62
2022/03/18 07:32:57;;;;;;;169.73;53.10;;;19.10;31.30;;;;;;4970610;28;20094;-62
2022/03/18 07:35:24;;;;;;;174.93;52.17;;;19.00;31.40;;;;;;4952258;28;20098;-58
2022/03/18 07:37:51;;;;;;;199.93;58.08;;;19.00;32.00;;;;;;4968147;28;20589;-63
2022/03/18 07:40:21;;;;;;;181.82;54.67;;;19.00;31.50;;;;;;4967273;28;20079;-61
2022/03/18 07:42:55;;;;;;;173.23;53.70;;;19.00;31.60;;;;;;4969230;28;20415;-61
2022/03/18 07:45:27;;;;;;;185.55;55.00;;;18.90;31.50;;;;;;4952744;28;20071;-61
2022/03/18 07:47:56;;;;;;;219.63;57.28;;;19.00;32.00;;;;;;4968189;28;20087;-64
2022/03/18 07:50:25;;;;;;;201.57;53.67;;;18.90;32.00;;;;;;4966950;28;20102;-61
2022/03/18 07:53:00;;;;;;;201.32;55.28;;;18.90;32.00;;;;;;4969603;28;20087;-61
2022/03/18 07:55:28;;;;;;;200.07;53.22;;;18.90;31.60;;;;;;4982276;28;20155;-64
2022/03/18 07:57:56;;;;;;;181.60;52.85;;;18.80;31.30;;;;;;4952000;28;20080;-61
2022/03/18 08:00:24;;;;;;;193.15;56.25;;;18.80;31.30;;;;;;4951648;28;20111;-62
2022/03/18 08:02:52;;;;;;;171.18;51.05;;;18.70;31.20;;;;;;4969671;28;20183;-61
2022/03/18 08:05:19;;;;;;;194.40;52.80;;;18.70;31.10;;;;;;4967264;28;20491;-61
2022/03/18 08:07:46;;;;;;;172.93;54.75;;;18.70;31.10;;;;;;4971678;28;20071;-62
2022/03/18 08:10:15;;;;;;;192.55;51.08;;;18.70;31.30;;;;;;4969470;28;20076;-60
2022/03/18 08:12:42;;;;;;;179.80;48.97;;;18.70;31.60;;;;;;4969378;28;20103;-61
2022/03/18 08:15:11;;;;;;;173.32;46.83;;;18.70;31.50;;;;;;4967083;28;20071;-60
2022/03/18 08:17:38;;;;;;;199.23;51.33;;;18.70;31.70;;;;;;4969788;28;20087;-60
2022/03/18 08:20:07;;;;;;;195.50;51.63;;;18.60;31.60;;;;;;4967052;28;20072;-62
2022/03/18 08:22:35;;;;;;;184.57;52.22;;;18.70;32.50;;;;;;4934092;28;20091;-62
2022/03/18 08:25:03;;;;;;;192.68;49.42;;;18.60;32.10;;;;;;4980539;28;20137;-62
2022/03/18 08:27:29;;;;;;;191.82;49.30;;;18.60;32.10;;;;;;4982930;28;20072;-60
2022/03/18 08:29:59;;;;;;;;;;;18.50;32.20;;;;;;4952437;28;20110;-61
2022/03/18 08:32:27;;;;;;;192.32;48.38;;;18.40;32.30;;;;;;4956541;28;20021;-62
2022/03/18 08:34:55;;;;;;;191.90;50.60;;;18.30;32.30;;;;;;4952180;28;20076;-60
2022/03/18 08:40:07;;;;;;;151.68;44.90;;;18.30;32.80;;;;;;4971255;28;20190;-61
2022/03/18 08:42:34;;;;;;;161.30;45.53;;;18.30;33.00;;;;;;4954312;28;20762;-60
2022/03/18 08:45:02;;;;;;;176.80;47.42;;;18.10;32.80;;;;;;4954279;28;20150;-62
2022/03/18 08:47:28;;;;;;;190.60;44.92;;;18.30;33.60;;;;;;4969967;28;20714;-61
2022/03/18 08:49:55;;;;;;;188.00;46.38;;;18.30;33.50;;;;;;4971987;28;20462;-61
2022/03/18 08:52:21;;;;;;;189.90;49.00;;;18.30;33.20;;;;;;4972214;28;20195;-63
2022/03/18 08:54:48;;;;;;;176.02;44.65;;;18.20;33.90;;;;;;4971270;28;20095;-64
2022/03/18 08:57:15;;;;;;;178.52;45.25;;;18.20;33.90;;;;;;4971016;28;20447;-60
2022/03/18 08:59:41;;;;;;;183.55;46.35;;;18.20;34.40;;;;;;4986207;28;20142;-61
2022/03/18 09:02:09;;;;;;;182.18;45.92;;;18.20;34.40;;;;;;4972853;28;20099;-62
2022/03/18 09:04:35;;;;;;;207.43;46.33;;;18.20;34.50;;;;;;4971693;28;20080;-60
2022/03/18 09:07:02;;;;;;;194.25;45.75;;;18.20;34.20;;;;;;4970506;28;20099;-62
2022/03/18 09:09:29;;;;;;;193.98;44.75;;;18.00;34.00;;;;;;4970250;28;20160;-63
2022/03/18 09:11:55;;;;;;;182.40;45.67;;;18.00;34.50;;;;;;4972336;28;20126;-62
2022/03/18 09:14:22;;;;;;;178.02;42.60;;;17.90;34.50;;;;;;4973232;28;20617;-60
2022/03/18 09:16:49;;;;;;;164.23;42.17;;;17.90;34.50;;;;;;4957177;28;20079;-61
2022/03/18 09:19:16;;;;;;;177.63;43.88;;;17.90;34.50;;;;;;4971608;28;20527;-63
2022/03/18 09:21:42;;;;;;;158.50;42.30;;;17.80;34.70;;;;;;4969906;28;20094;-62
2022/03/18 09:24:09;;;;;;;150.68;42.92;;;17.80;35.00;;;;;;4970239;28;20134;-62
2022/03/18 09:26:37;;;;;;;155.52;41.60;;;17.80;35.30;;;;;;4970137;28;20502;-61
2022/03/18 09:29:03;;;;;;;182.55;46.13;;;17.80;35.20;;;;;;4951706;28;20130;-60
2022/03/18 09:31:30;;;;;;;161.05;41.55;;;17.80;35.60;;;;;;4970533;28;20090;-63
2022/03/18 09:33:57;;;;;;;167.18;44.78;;;17.70;35.00;;;;;;4970130;28;20181;-61
2022/03/18 09:36:24;;;;;;;170.35;42.58;;;17.70;34.90;;;;;;4969650;28;20071;-59
2022/03/18 09:38:51;;;;;;;177.52;43.33;;;17.50;34.90;;;;;;4969054;28;20456;-62
2022/03/18 09:41:18;;;;;;;155.38;44.25;;;17.60;35.20;;;;;;4970379;28;20079;-63
2022/03/18 09:43:44;;;;;;;164.15;43.30;;;17.50;35.00;;;;;;4967738;28;20076;-61
2022/03/18 09:46:13;;;;;;;195.43;44.70;;;17.50;35.10;;;;;;4968529;28;20091;-61
2022/03/18 09:48:40;;;;;;;175.90;43.58;;;17.50;35.80;;;;;;4984967;28;20072;-61
2022/03/18 09:51:08;;;;;;;178.95;43.38;;;17.50;36.20;;;;;;4971453;28;20442;-63
2022/03/18 09:53:34;;;;;;;150.70;43.08;;;17.50;35.90;;;;;;4954460;28;20122;-60
2022/03/18 09:56:02;;;;;;;147.98;40.20;;;17.50;35.90;;;;;;4969325;28;20095;-62
2022/03/18 09:58:29;;;;;;;167.52;44.70;;;17.40;36.40;;;;;;4970808;28;20122;-62
2022/03/18 10:00:58;;;;;;;188.02;43.10;;;17.40;36.60;;;;;;4952984;28;20519;-62
2022/03/18 10:03:39;;;;;;;170.35;41.95;;;17.40;36.80;;;;;;4969875;28;20075;-59
2022/03/18 10:06:06;;;;;;;183.77;41.30;;;17.40;37.00;;;;;;4952957;28;20167;-61
2022/03/18 10:08:37;;;;;;;157.85;43.42;;;17.40;37.00;;;;;;4968464;28;20087;-61
2022/03/18 10:11:28;;;;;;;170.30;42.45;;;17.40;37.40;;;;;;4985423;28;20082;-60
2022/03/18 10:14:04;;;;;;;181.38;42.00;;;17.30;37.00;;;;;;4983813;28;20099;-60
2022/03/18 10:16:46;;;;;;;160.20;40.67;;;17.20;36.70;;;;;;4953277;28;20075;-61
2022/03/18 10:19:16;;;;;;;171.40;42.40;;;17.20;36.70;;;;;;4968491;28;20658;-61
2022/03/18 10:21:54;;;;;;;163.85;41.72;;;17.00;36.60;;;;;;4969405;28;20078;-61
2022/03/18 10:24:30;;;;;;;158.05;42.22;;;16.90;36.90;;;;;;4985270;28;20079;-62
2022/03/18 10:27:14;;;;;;;148.23;42.42;;;16.90;37.20;;;;;;4969824;28;20152;-61
2022/03/18 10:29:45;;;;;;;133.98;38.65;;;16.80;37.10;;;;;;4968975;28;20175;-62
2022/03/18 10:32:12;;;;;;;137.15;38.22;;;16.80;37.10;;;;;;4970502;28;20544;-62
2022/03/18 10:37:40;;;;;;;150.57;42.90;;;16.80;37.30;;;;;;4969942;28;20553;-64
2022/03/18 10:40:07;;;;;;;149.68;39.33;;;16.80;37.20;;;;;;4950497;28;20166;-61
2022/03/18 10:42:34;;;;;;;160.55;41.45;;;16.80;37.20;;;;;;4953440;28;20110;-61
2022/03/18 10:45:02;;;;;;;166.20;42.30;;;16.70;37.60;;;;;;4968685;28;20134;-60
2022/03/18 10:47:42;;;;;;;149.80;41.65;;;16.70;37.60;;;;;;4968434;28;20138;-61
2022/03/18 10:50:11;;;;;;;145.27;41.47;;;16.80;37.70;;;;;;4966825;28;20083;-61
2022/03/18 10:52:47;;;;;;;172.07;41.97;;;16.80;37.50;;;;;;4969126;28;20554;-62
2022/03/18 10:55:24;;;;;;;155.45;43.35;;;16.80;38.00;;;;;;4968151;28;20091;-62
2022/03/18 10:57:52;;;;;;;155.63;43.53;;;16.80;38.40;;;;;;4968327;28;20077;-62
2022/03/18 11:00:21;;;;;;;157.52;43.33;;;16.80;38.80;;;;;;4968274;28;20451;-62
2022/03/18 11:02:50;;;;;;;158.30;41.85;;;16.70;38.80;;;;;;4969981;28;20079;-61
2022/03/18 11:05:22;;;;;;;138.40;41.92;;;16.70;38.80;;;;;;4967994;28;20633;-63
2022/03/18 11:07:52;;;;;;;168.90;41.97;;;16.70;39.10;;;;;;4968664;28;20129;-61
2022/03/18 11:13:07;;;;;;;153.70;39.20;;;16.70;39.00;;;;;;4969421;28;20187;-61
2022/03/18 11:15:35;;;;;;;138.52;39.58;;;16.60;39.20;;;;;;4967884;28;20079;-62
2022/03/18 11:18:03;;;;;;;139.35;36.13;;;16.60;39.50;;;;;;4969082;28;20082;-64
2022/03/18 11:20:33;;;;;;;143.63;39.40;;;16.60;39.40;;;;;;4969050;28;20067;-59
2022/03/18 11:23:00;;;;;;;130.52;36.72;;;16.50;39.60;;;;;;4971424;28;20071;-61
2022/03/18 11:25:28;;;;;;;112.93;32.88;;;16.40;39.00;;;;;;4968777;28;20097;-62
2022/03/18 11:27:57;;;;;;;113.50;32.28;;;16.40;39.30;;;;;;4952354;28;20081;-61
2022/03/18 11:30:42;;;;;;;105.38;34.67;;;16.40;39.10;;;;;;4967250;28;20090;-62
2022/03/18 11:33:13;;;;;;;105.07;31.95;;;16.40;39.40;;;;;;4969231;28;20149;-62
2022/03/18 11:35:48;;;;;;;103.70;32.20;;;16.40;39.40;;;;;;4969346;28;20438;-60
2022/03/18 11:38:31;;;;;;;108.32;29.60;;;16.30;39.20;;;;;;4967715;28;20075;-62
2022/03/18 11:41:01;;;;;;;103.43;29.63;;;16.30;38.90;;;;;;4968839;28;20170;-61
2022/03/18 11:43:39;;;;;;;107.03;30.05;;;16.20;38.70;;;;;;4967519;28;20438;-58
2022/03/18 11:49:10;;;;;;;89.13;29.05;;;16.20;38.80;;;;;;4968715;28;20110;-61
2022/03/18 11:51:40;;;;;;;98.10;28.70;;;16.20;39.00;;;;;;4966364;28;20127;-63
2022/03/18 11:54:25;;;;;;;98.43;27.98;;;16.20;39.20;;;;;;4950626;28;20095;-64
2022/03/18 11:56:57;;;;;;;102.85;27.33;;;16.10;39.50;;;;;;4938170;28;20536;-61
2022/03/18 11:59:31;;;;;;;93.75;27.92;;;16.10;39.50;;;;;;4951125;28;20166;-62
2022/03/18 12:02:05;;;;;;;97.10;26.80;;;16.00;39.10;;;;;;4950677;28;20193;-64
2022/03/18 12:04:34;;;;;;;102.28;28.38;;;15.90;39.10;;;;;;4934969;28;20490;-61
2022/03/18 12:07:27;;;;;;;95.15;29.30;;;16.00;39.20;;;;;;4966202;28;20098;-62
2022/03/18 12:10:08;;;;;;;95.93;30.55;;;16.00;39.80;;;;;;4966611;28;20067;-59
2022/03/18 12:12:46;;;;;;;107.53;30.40;;;16.00;40.30;;;;;;4955506;28;20104;-61
2022/03/18 12:15:22;;;;;;;100.22;28.45;;;16.00;40.20;;;;;;4968424;28;20471;-60
2022/03/18 12:17:58;;;;;;;103.88;29.90;;;16.00;40.00;;;;;;4955408;28;20071;-61
2022/03/18 12:20:30;;;;;;;101.90;27.75;;;16.00;40.20;;;;;;4971297;28;20106;-60
2022/03/18 12:23:00;;;;;;;104.03;27.17;;;15.90;40.30;;;;;;4958468;28;20095;-58
2022/03/18 12:25:27;;;;;;;107.88;29.10;;;15.90;40.20;;;;;;4959233;28;20451;-68
2022/03/18 12:27:55;;;;;;;106.30;27.60;;;15.80;40.10;;;;;;4972237;28;20087;-63
2022/03/18 12:30:25;;;;;;;111.55;28.38;;;15.80;40.20;;;;;;4971254;28;20084;-62
2022/03/18 12:32:54;;;;;;;90.22;27.90;;;15.80;40.50;;;;;;4971895;28;20102;-62
2022/03/18 12:35:29;;;;;;;103.63;30.85;;;15.80;40.20;;;;;;4969163;28;20527;-62
2022/03/18 12:38:10;;;;;;;103.72;29.40;;;15.70;40.30;;;;;;4971690;28;20133;-60
2022/03/18 12:40:40;;;;;;;101.03;29.05;;;15.70;40.40;;;;;;4969813;28;20075;-62
2022/03/18 12:43:07;;;;;;;118.10;30.52;;;15.60;40.50;;;;;;4970769;28;20447;-62
2022/03/18 12:45:41;;;;;;;103.15;29.95;;;15.60;40.80;;;;;;4971285;28;20083;-63
2022/03/18 12:48:10;;;;;;;96.55;28.10;;;15.60;41.00;;;;;;4968592;28;20083;-56
2022/03/18 12:50:38;;;;;;;107.10;30.20;;;15.60;41.30;;;;;;4971503;28;20079;-62
2022/03/18 12:53:20;;;;;;;99.07;28.98;;;15.60;41.40;;;;;;4969931;28;20106;-62
2022/03/18 12:55:50;;;;;;;116.65;31.55;;;15.70;41.40;;;;;;4970628;28;20090;-63